createdAt,value
2022-07-25T00:00:44.229Z,991.29
2022-07-25T00:01:44.294Z,991.27
2022-07-25T00:02:44.224Z,991.29
2022-07-25T00:03:44.228Z,991.24
2022-07-25T00:04:44.262Z,991.28
2022-07-25T00:05:44.194Z,991.16
2022-07-25T00:06:44.180Z,991.21
2022-07-25T00:07:44.181Z,991.19
2022-07-25T00:08:44.193Z,991.19
2022-07-25T00:09:44.162Z,991.25
2022-07-25T00:10:44.149Z,991.17
2022-07-25T00:11:44.140Z,991.16
2022-07-25T00:12:44.140Z,991.12
2022-07-25T00:13:44.149Z,991.16
2022-07-25T00:14:44.123Z,991.16
2022-07-25T00:15:44.166Z,991.19
2022-07-25T00:16:44.106Z,991.11
2022-07-25T00:17:44.090Z,991.13
2022-07-25T00:18:44.109Z,991.12
2022-07-25T00:19:44.074Z,991.16
2022-07-25T00:20:44.065Z,991.10
2022-07-25T00:21:45.065Z,991.25
2022-07-25T00:22:44.050Z,991.27
2022-07-25T00:23:44.069Z,991.30
2022-07-25T00:24:44.039Z,991.30
2022-07-25T00:25:44.033Z,991.25
2022-07-25T00:26:44.020Z,991.32
2022-07-25T00:27:44.014Z,991.28
2022-07-25T00:28:44.039Z,991.31
2022-07-25T00:29:44.001Z,991.23
2022-07-25T00:30:44.112Z,991.24
2022-07-25T00:31:44.049Z,991.26
2022-07-25T00:32:43.970Z,991.19
2022-07-25T00:33:43.991Z,991.18
2022-07-25T00:34:43.956Z,991.19
2022-07-25T00:35:43.950Z,991.14
2022-07-25T00:36:43.943Z,991.14
2022-07-25T00:37:43.932Z,991.15
2022-07-25T00:38:43.952Z,991.15
2022-07-25T00:39:43.923Z,991.12
2022-07-25T00:40:43.913Z,991.17
2022-07-25T00:41:43.902Z,991.15
2022-07-25T00:42:43.897Z,991.16
2022-07-25T00:43:43.920Z,991.18
2022-07-25T00:44:43.878Z,991.15
2022-07-25T00:45:43.881Z,991.15
2022-07-25T00:46:43.925Z,991.08
2022-07-25T00:47:43.855Z,991.15
2022-07-25T00:48:43.950Z,991.09
2022-07-25T00:49:43.849Z,991.12
2022-07-25T00:50:43.835Z,991.07
2022-07-25T00:51:43.828Z,991.05
2022-07-25T00:52:43.824Z,991.07
2022-07-25T00:53:43.818Z,991.06
2022-07-25T00:54:43.831Z,991.00
2022-07-25T00:55:43.797Z,991.03
2022-07-25T00:56:43.789Z,991.04
2022-07-25T00:57:43.782Z,991.00
2022-07-25T00:58:43.889Z,990.98
2022-07-25T00:59:43.765Z,990.93
2022-07-25T01:00:44.762Z,990.98
2022-07-25T01:01:43.779Z,990.96
2022-07-25T01:02:43.816Z,990.95
2022-07-25T01:03:43.742Z,990.96
2022-07-25T01:04:43.765Z,990.86
2022-07-25T01:05:43.730Z,990.85
2022-07-25T01:06:43.715Z,990.87
2022-07-25T01:07:43.702Z,990.81
2022-07-25T01:08:43.690Z,990.76
2022-07-25T01:09:43.708Z,990.81
2022-07-25T01:10:43.676Z,990.79
2022-07-25T01:11:43.670Z,990.77
2022-07-25T01:12:43.664Z,990.84
2022-07-25T01:13:43.655Z,990.71
2022-07-25T01:14:43.673Z,990.73
2022-07-25T01:15:43.683Z,990.72
2022-07-25T01:16:43.650Z,990.72
2022-07-25T01:17:43.631Z,990.69
2022-07-25T01:18:43.620Z,990.69
2022-07-25T01:19:43.635Z,990.70
2022-07-25T01:20:43.612Z,990.77
2022-07-25T01:21:43.595Z,990.74
2022-07-25T01:22:43.594Z,990.71
2022-07-25T01:23:43.584Z,990.72
2022-07-25T01:24:43.603Z,990.67
2022-07-25T01:25:43.573Z,990.73
2022-07-25T01:26:43.563Z,990.74
2022-07-25T01:27:43.567Z,990.69
2022-07-25T01:28:43.554Z,990.74
2022-07-25T01:29:43.567Z,990.75
2022-07-25T01:30:43.594Z,990.77
2022-07-25T01:31:43.536Z,990.76
2022-07-25T01:32:43.516Z,990.70
2022-07-25T01:33:43.510Z,990.70
2022-07-25T01:34:43.531Z,990.75
2022-07-25T01:35:43.744Z,990.75
2022-07-25T01:36:44.490Z,990.73
2022-07-25T01:37:46.021Z,990.75
2022-07-25T01:38:43.474Z,990.70
2022-07-25T01:39:43.493Z,990.68
2022-07-25T01:40:43.462Z,990.69
2022-07-25T01:41:43.451Z,990.62
2022-07-25T01:42:43.455Z,990.64
2022-07-25T01:43:43.438Z,990.66
2022-07-25T01:44:43.458Z,990.62
2022-07-25T01:45:43.418Z,990.64
2022-07-25T01:46:43.510Z,990.60
2022-07-25T01:47:43.405Z,990.58
2022-07-25T01:48:43.468Z,990.55
2022-07-25T01:49:43.413Z,990.61
2022-07-25T01:50:43.381Z,990.52
2022-07-25T01:51:43.373Z,990.53
2022-07-25T01:52:43.365Z,990.61
2022-07-25T01:53:43.358Z,990.55
2022-07-25T01:54:43.480Z,990.54
2022-07-25T01:55:43.348Z,990.57
2022-07-25T01:56:43.335Z,990.56
2022-07-25T01:57:49.719Z,990.46
2022-07-25T01:58:44.328Z,990.51
2022-07-25T01:59:43.347Z,990.50
2022-07-25T02:00:43.337Z,990.51
2022-07-25T02:01:43.435Z,990.44
2022-07-25T02:02:43.293Z,990.50
2022-07-25T02:03:43.287Z,990.50
2022-07-25T02:04:43.351Z,990.41
2022-07-25T02:05:43.269Z,990.44
2022-07-25T02:06:43.259Z,990.47
2022-07-25T02:07:43.248Z,990.46
2022-07-25T02:08:43.247Z,990.43
2022-07-25T02:09:43.261Z,990.45
2022-07-25T02:10:43.228Z,990.40
2022-07-25T02:11:43.216Z,990.35
2022-07-25T02:12:43.216Z,990.35
2022-07-25T02:13:43.212Z,990.39
2022-07-25T02:14:43.223Z,990.29
2022-07-25T02:15:43.194Z,990.35
2022-07-25T02:16:43.240Z,990.28
2022-07-25T02:17:43.176Z,990.31
2022-07-25T02:18:43.170Z,990.30
2022-07-25T02:19:43.194Z,990.31
2022-07-25T02:20:43.155Z,990.28
2022-07-25T02:21:43.146Z,990.23
2022-07-25T02:22:43.143Z,990.28
2022-07-25T02:23:43.159Z,990.29
2022-07-25T02:24:43.145Z,990.27
2022-07-25T02:25:43.110Z,990.26
2022-07-25T02:26:43.108Z,990.27
2022-07-25T02:27:43.096Z,990.20
2022-07-25T02:28:43.090Z,990.18
2022-07-25T02:29:43.109Z,990.24
2022-07-25T02:30:43.138Z,990.21
2022-07-25T02:31:43.068Z,990.22
2022-07-25T02:32:43.066Z,990.19
2022-07-25T02:33:43.052Z,990.19
2022-07-25T02:34:43.074Z,990.13
2022-07-25T02:35:43.040Z,990.20
2022-07-25T02:36:43.035Z,990.16
2022-07-25T02:37:43.023Z,990.12
2022-07-25T02:38:43.020Z,990.14
2022-07-25T02:39:43.034Z,990.14
2022-07-25T02:40:43.004Z,990.12
2022-07-25T02:41:43.002Z,990.10
2022-07-25T02:42:42.990Z,990.12
2022-07-25T02:43:42.981Z,990.13
2022-07-25T02:44:43.006Z,990.10
2022-07-25T02:45:43.024Z,990.13
2022-07-25T02:46:42.956Z,990.11
2022-07-25T02:47:42.961Z,990.11
2022-07-25T02:48:43.000Z,990.14
2022-07-25T02:49:42.966Z,990.09
2022-07-25T02:50:42.935Z,990.12
2022-07-25T02:51:42.923Z,990.08
2022-07-25T02:52:42.915Z,990.10
2022-07-25T02:53:58.831Z,990.08
2022-07-25T02:54:44.935Z,990.14
2022-07-25T02:55:42.895Z,990.09
2022-07-25T02:56:42.878Z,990.13
2022-07-25T02:57:42.872Z,990.09
2022-07-25T02:58:42.871Z,990.02
2022-07-25T02:59:42.862Z,990.12
2022-07-25T03:00:44.297Z,990.04
2022-07-25T03:01:42.889Z,990.01
2022-07-25T03:02:42.842Z,990.08
2022-07-25T03:03:42.895Z,990.02
2022-07-25T03:04:42.821Z,990.01
2022-07-25T03:05:42.833Z,989.95
2022-07-25T03:06:42.809Z,990.02
2022-07-25T03:07:42.799Z,989.94
2022-07-25T03:08:42.792Z,989.98
2022-07-25T03:09:42.789Z,989.92
2022-07-25T03:10:42.806Z,989.94
2022-07-25T03:11:42.768Z,989.93
2022-07-25T03:12:42.757Z,989.97
2022-07-25T03:13:42.756Z,989.89
2022-07-25T03:14:42.739Z,989.91
2022-07-25T03:15:42.760Z,989.94
2022-07-25T03:16:42.815Z,989.90
2022-07-25T03:17:42.726Z,989.93
2022-07-25T03:18:42.717Z,989.85
2022-07-25T03:19:42.711Z,989.93
2022-07-25T03:20:42.729Z,989.78
2022-07-25T03:21:42.698Z,989.87
2022-07-25T03:22:42.691Z,989.86
2022-07-25T03:23:42.673Z,989.78
2022-07-25T03:24:42.668Z,989.79
2022-07-25T03:25:42.681Z,989.78
2022-07-25T03:26:42.649Z,989.82
2022-07-25T03:27:42.647Z,989.78
2022-07-25T03:28:42.631Z,989.77
2022-07-25T03:29:42.622Z,989.78
2022-07-25T03:30:42.679Z,989.74
2022-07-25T03:31:42.657Z,989.67
2022-07-25T03:32:42.622Z,989.67
2022-07-25T03:33:42.594Z,989.69
2022-07-25T03:34:42.586Z,989.61
2022-07-25T03:35:42.606Z,989.62
2022-07-25T03:36:42.573Z,989.70
2022-07-25T03:37:42.563Z,989.69
2022-07-25T03:38:42.549Z,989.72
2022-07-25T03:39:42.553Z,989.67
2022-07-25T03:40:42.566Z,989.67
2022-07-25T03:41:42.531Z,989.67
2022-07-25T03:42:42.529Z,989.66
2022-07-25T03:43:42.515Z,989.68
2022-07-25T03:44:42.507Z,989.68
2022-07-25T03:45:42.674Z,989.66
2022-07-25T03:46:42.497Z,989.69
2022-07-25T03:47:42.481Z,989.62
2022-07-25T03:48:42.529Z,989.54
2022-07-25T03:49:42.472Z,989.59
2022-07-25T03:50:42.487Z,989.59
2022-07-25T03:51:42.456Z,989.59
2022-07-25T03:52:42.442Z,989.62
2022-07-25T03:53:43.438Z,989.60
2022-07-25T03:54:42.424Z,989.53
2022-07-25T03:55:42.447Z,989.58
2022-07-25T03:56:43.881Z,989.60
2022-07-25T03:57:42.405Z,989.65
2022-07-25T03:58:42.404Z,989.62
2022-07-25T03:59:42.414Z,989.56
2022-07-25T04:00:42.464Z,989.55
2022-07-25T04:01:43.374Z,989.53
2022-07-25T04:02:42.435Z,989.57
2022-07-25T04:03:42.366Z,989.56
2022-07-25T04:04:42.342Z,989.59
2022-07-25T04:05:47.250Z,989.59
2022-07-25T04:06:44.334Z,989.56
2022-07-25T04:07:42.326Z,989.60
2022-07-25T04:08:42.323Z,989.69
2022-07-25T04:09:42.316Z,989.69
2022-07-25T04:10:42.327Z,989.54
2022-07-25T04:11:42.297Z,989.57
2022-07-25T04:12:42.304Z,989.66
2022-07-25T04:13:42.313Z,989.69
2022-07-25T04:14:42.272Z,989.67
2022-07-25T04:15:42.292Z,989.66
2022-07-25T04:16:42.294Z,989.65
2022-07-25T04:17:42.245Z,989.76
2022-07-25T04:18:42.239Z,989.72
2022-07-25T04:19:42.231Z,989.72
2022-07-25T04:20:42.244Z,989.79
2022-07-25T04:21:42.214Z,989.70
2022-07-25T04:22:46.344Z,989.72
2022-07-25T04:23:43.192Z,989.78
2022-07-25T04:24:42.195Z,989.74
2022-07-25T04:25:42.207Z,989.74
2022-07-25T04:26:42.174Z,989.74
2022-07-25T04:27:42.168Z,989.77
2022-07-25T04:28:42.170Z,989.75
2022-07-25T04:29:42.151Z,989.73
2022-07-25T04:30:42.167Z,989.76
2022-07-25T04:31:42.195Z,989.76
2022-07-25T04:32:42.131Z,989.75
2022-07-25T04:33:42.123Z,989.70
2022-07-25T04:34:42.115Z,989.72
2022-07-25T04:35:42.139Z,989.72
2022-07-25T04:36:42.101Z,989.72
2022-07-25T04:37:42.089Z,989.69
2022-07-25T04:38:42.090Z,989.68
2022-07-25T04:39:42.075Z,989.74
2022-07-25T04:40:42.097Z,989.73
2022-07-25T04:41:42.061Z,989.76
2022-07-25T04:42:42.059Z,989.74
2022-07-25T04:43:48.004Z,989.73
2022-07-25T04:44:44.026Z,989.68
2022-07-25T04:45:43.109Z,989.76
2022-07-25T04:46:42.019Z,989.71
2022-07-25T04:47:42.033Z,989.67
2022-07-25T04:48:42.040Z,989.64
2022-07-25T04:49:42.005Z,989.67
2022-07-25T04:50:42.020Z,989.57
2022-07-25T04:51:41.987Z,989.61
2022-07-25T04:52:41.978Z,989.65
2022-07-25T04:53:41.966Z,989.64
2022-07-25T04:54:41.967Z,989.63
2022-07-25T04:55:41.989Z,989.65
2022-07-25T04:56:41.958Z,989.59
2022-07-25T04:57:41.943Z,989.63
2022-07-25T04:58:41.940Z,989.63
2022-07-25T04:59:41.939Z,989.57
2022-07-25T05:00:42.027Z,989.62
2022-07-25T05:01:41.930Z,989.58
2022-07-25T05:02:41.979Z,989.57
2022-07-25T05:03:41.948Z,989.50
2022-07-25T05:04:45.443Z,989.57
2022-07-25T05:05:42.932Z,989.53
2022-07-25T05:06:41.875Z,989.51
2022-07-25T05:07:41.855Z,989.55
2022-07-25T05:08:42.858Z,989.55
2022-07-25T05:09:41.854Z,989.50
2022-07-25T05:10:41.898Z,989.45
2022-07-25T05:11:46.847Z,989.50
2022-07-25T05:12:43.831Z,989.50
2022-07-25T05:13:41.827Z,989.43
2022-07-25T05:14:41.902Z,989.47
2022-07-25T05:15:42.859Z,989.50
2022-07-25T05:16:41.870Z,989.51
2022-07-25T05:17:41.804Z,989.49
2022-07-25T05:18:41.789Z,989.49
2022-07-25T05:19:41.787Z,989.48
2022-07-25T05:20:41.813Z,989.47
2022-07-25T05:21:41.767Z,989.45
2022-07-25T05:22:41.763Z,989.48
2022-07-25T05:23:41.757Z,989.50
2022-07-25T05:24:41.822Z,989.48
2022-07-25T05:25:41.775Z,989.44
2022-07-25T05:26:41.740Z,989.43
2022-07-25T05:27:41.745Z,989.37
2022-07-25T05:28:41.730Z,989.37
2022-07-25T05:29:41.711Z,989.35
2022-07-25T05:30:41.751Z,989.38
2022-07-25T05:31:41.730Z,989.40
2022-07-25T05:32:41.693Z,989.31
2022-07-25T05:33:41.687Z,989.37
2022-07-25T05:34:41.679Z,989.32
2022-07-25T05:35:41.699Z,989.36
2022-07-25T05:36:46.856Z,989.36
2022-07-25T05:37:43.657Z,989.28
2022-07-25T05:38:41.661Z,989.34
2022-07-25T05:39:41.655Z,989.29
2022-07-25T05:40:41.658Z,989.31
2022-07-25T05:41:41.635Z,989.21
2022-07-25T05:42:41.627Z,989.30
2022-07-25T05:43:41.624Z,989.26
2022-07-25T05:44:41.615Z,989.23
2022-07-25T05:45:41.648Z,989.24
2022-07-25T05:46:41.688Z,989.15
2022-07-25T05:47:41.606Z,989.18
2022-07-25T05:48:41.632Z,989.14
2022-07-25T05:49:41.585Z,989.20
2022-07-25T05:50:41.606Z,989.13
2022-07-25T05:51:41.567Z,989.18
2022-07-25T05:52:41.572Z,989.23
2022-07-25T05:53:41.564Z,989.24
2022-07-25T05:54:41.552Z,989.25
2022-07-25T05:55:41.560Z,989.26
2022-07-25T05:56:41.565Z,989.23
2022-07-25T05:57:41.592Z,989.23
2022-07-25T05:58:41.526Z,989.12
2022-07-25T05:59:41.520Z,989.16
2022-07-25T06:00:41.518Z,989.17
2022-07-25T06:01:41.652Z,989.09
2022-07-25T06:02:41.561Z,989.18
2022-07-25T06:03:41.501Z,989.15
2022-07-25T06:04:41.495Z,989.11
2022-07-25T06:05:41.510Z,989.15
2022-07-25T06:06:41.510Z,989.08
2022-07-25T06:07:41.475Z,989.09
2022-07-25T06:08:41.474Z,989.09
2022-07-25T06:09:41.468Z,989.10
2022-07-25T06:10:41.459Z,989.06
2022-07-25T06:11:54.692Z,989.09
2022-07-25T06:12:42.441Z,989.13
2022-07-25T06:13:41.439Z,989.10
2022-07-25T06:14:41.442Z,989.04
2022-07-25T06:15:41.429Z,989.09
2022-07-25T06:16:41.490Z,989.14
2022-07-25T06:17:41.421Z,989.00
2022-07-25T06:18:41.412Z,988.95
2022-07-25T06:19:41.412Z,988.95
2022-07-25T06:20:41.409Z,988.97
2022-07-25T06:21:41.428Z,988.96
2022-07-25T06:22:41.388Z,988.96
2022-07-25T06:23:41.390Z,988.97
2022-07-25T06:24:41.389Z,988.96
2022-07-25T06:25:41.378Z,988.98
2022-07-25T06:26:41.390Z,988.93
2022-07-25T06:27:41.366Z,988.90
2022-07-25T06:28:41.361Z,988.88
2022-07-25T06:29:41.367Z,988.77
2022-07-25T06:30:41.351Z,988.83
2022-07-25T06:31:41.440Z,988.79
2022-07-25T06:32:41.336Z,988.81
2022-07-25T06:33:41.329Z,988.81
2022-07-25T06:34:41.317Z,988.82
2022-07-25T06:35:42.328Z,988.87
2022-07-25T06:36:41.341Z,988.88
2022-07-25T06:37:41.309Z,988.85
2022-07-25T06:38:41.308Z,988.80
2022-07-25T06:39:45.516Z,988.80
2022-07-25T06:40:42.292Z,988.74
2022-07-25T06:41:41.312Z,988.76
2022-07-25T06:42:41.277Z,988.67
2022-07-25T06:43:41.283Z,988.77
2022-07-25T06:44:41.275Z,988.71
2022-07-25T06:45:41.264Z,988.68
2022-07-25T06:46:41.384Z,988.69
2022-07-25T06:47:41.260Z,988.74
2022-07-25T06:48:41.319Z,988.71
2022-07-25T06:49:41.241Z,988.70
2022-07-25T06:50:41.238Z,988.62
2022-07-25T06:51:41.262Z,988.70
2022-07-25T06:52:41.231Z,988.66
2022-07-25T06:53:41.233Z,988.65
2022-07-25T06:54:41.237Z,988.64
2022-07-25T06:55:41.222Z,988.60
2022-07-25T06:56:41.230Z,988.48
2022-07-25T06:57:41.206Z,988.53
2022-07-25T06:58:41.210Z,988.52
2022-07-25T06:59:41.204Z,988.51
2022-07-25T07:00:41.241Z,988.50
2022-07-25T07:01:41.217Z,988.50
2022-07-25T07:02:41.248Z,988.53
2022-07-25T07:03:41.260Z,988.52
2022-07-25T07:04:41.180Z,988.45
2022-07-25T07:05:41.171Z,988.51
2022-07-25T07:06:41.189Z,988.44
2022-07-25T07:07:45.701Z,988.46
2022-07-25T07:08:43.151Z,988.45
2022-07-25T07:09:41.160Z,988.45
2022-07-25T07:10:41.156Z,988.41
2022-07-25T07:11:41.163Z,988.42
2022-07-25T07:12:41.139Z,988.43
2022-07-25T07:13:41.124Z,988.39
2022-07-25T07:14:41.145Z,988.39
2022-07-25T07:15:41.146Z,988.41
2022-07-25T07:16:41.232Z,988.34
2022-07-25T07:17:41.110Z,988.33
2022-07-25T07:18:44.614Z,988.41
2022-07-25T07:19:42.134Z,988.36
2022-07-25T07:20:41.094Z,988.37
2022-07-25T07:21:41.111Z,988.27
2022-07-25T07:22:41.089Z,988.24
2022-07-25T07:23:41.074Z,988.26
2022-07-25T07:24:45.151Z,988.23
2022-07-25T07:25:43.066Z,988.21
2022-07-25T07:26:41.082Z,988.24
2022-07-25T07:27:41.051Z,988.21
2022-07-25T07:28:41.044Z,988.19
2022-07-25T07:29:41.049Z,988.12
2022-07-25T07:31:43.110Z,988.14
2022-07-25T07:32:41.029Z,988.15
2022-07-25T07:33:41.029Z,988.13
2022-07-25T07:34:41.022Z,988.18
2022-07-25T07:35:41.013Z,988.09
2022-07-25T07:36:41.027Z,988.08
2022-07-25T07:37:43.687Z,988.10
2022-07-25T07:38:42.005Z,988.09
2022-07-25T07:39:40.993Z,988.10
2022-07-25T07:40:40.989Z,988.11
2022-07-25T07:41:41.004Z,988.07
2022-07-25T07:42:40.976Z,988.08
2022-07-25T07:43:40.968Z,988.08
2022-07-25T07:44:40.964Z,988.12
2022-07-25T07:45:40.962Z,988.10
2022-07-25T07:46:41.015Z,988.05
2022-07-25T07:47:40.946Z,988.06
2022-07-25T07:48:40.990Z,988.02
2022-07-25T07:49:40.942Z,988.07
2022-07-25T07:50:40.958Z,987.97
2022-07-25T07:51:40.957Z,987.96
2022-07-25T07:52:40.921Z,988.00
2022-07-25T07:53:40.905Z,987.99
2022-07-25T07:54:41.914Z,987.92
2022-07-25T07:55:40.913Z,987.93
2022-07-25T07:56:40.928Z,987.89
2022-07-25T07:57:40.904Z,987.90
2022-07-25T07:58:40.902Z,987.89
2022-07-25T07:59:40.901Z,987.89
2022-07-25T08:00:40.884Z,987.86
2022-07-25T08:01:40.944Z,987.82
2022-07-25T08:02:40.974Z,987.89
2022-07-25T08:03:40.875Z,987.87
2022-07-25T08:04:40.870Z,987.92
2022-07-25T08:05:40.869Z,987.99
2022-07-25T08:06:40.890Z,987.93
2022-07-25T08:07:40.855Z,987.90
2022-07-25T08:08:40.852Z,987.79
2022-07-25T08:09:40.844Z,987.83
2022-07-25T08:10:40.840Z,987.81
2022-07-25T08:11:40.856Z,987.82
2022-07-25T08:12:40.829Z,987.75
2022-07-25T08:13:40.901Z,987.73
2022-07-25T08:14:40.822Z,987.66
2022-07-25T08:15:40.840Z,987.68
2022-07-25T08:16:40.952Z,987.66
2022-07-25T08:17:40.806Z,987.69
2022-07-25T08:18:40.813Z,987.67
2022-07-25T08:19:40.798Z,987.63
2022-07-25T08:20:40.845Z,987.65
2022-07-25T08:21:40.838Z,987.54
2022-07-25T08:22:40.814Z,987.55
2022-07-25T08:23:40.787Z,987.54
2022-07-25T08:24:40.783Z,987.51
2022-07-25T08:25:40.771Z,987.54
2022-07-25T08:26:40.770Z,987.53
2022-07-25T08:27:40.785Z,987.53
2022-07-25T08:28:40.787Z,987.45
2022-07-25T08:29:40.758Z,987.43
2022-07-25T08:30:40.762Z,987.44
2022-07-25T08:31:40.777Z,987.48
2022-07-25T08:32:40.770Z,987.40
2022-07-25T08:33:40.742Z,987.34
2022-07-25T08:34:40.744Z,987.36
2022-07-25T08:35:40.733Z,987.33
2022-07-25T08:36:40.725Z,987.46
2022-07-25T08:37:40.751Z,987.41
2022-07-25T08:38:40.711Z,987.46
2022-07-25T08:39:40.708Z,987.48
2022-07-25T08:40:40.708Z,987.40
2022-07-25T08:41:40.703Z,987.45
2022-07-25T08:42:40.731Z,987.43
2022-07-25T08:43:40.699Z,987.37
2022-07-25T08:44:40.690Z,987.41
2022-07-25T08:45:40.669Z,987.41
2022-07-25T08:46:41.825Z,987.38
2022-07-25T08:47:40.702Z,987.40
2022-07-25T08:48:40.738Z,987.46
2022-07-25T08:49:40.666Z,987.38
2022-07-25T08:50:40.666Z,987.38
2022-07-25T08:51:40.652Z,987.41
2022-07-25T08:52:40.676Z,987.38
2022-07-25T08:53:40.640Z,987.36
2022-07-25T08:54:40.642Z,987.41
2022-07-25T08:55:40.632Z,987.44
2022-07-25T08:56:40.630Z,987.43
2022-07-25T08:57:40.654Z,987.39
2022-07-25T08:58:40.630Z,987.39
2022-07-25T08:59:40.613Z,987.34
2022-07-25T09:00:40.608Z,987.39
2022-07-25T09:01:40.641Z,987.40
2022-07-25T09:02:40.658Z,987.38
2022-07-25T09:03:40.589Z,987.30
2022-07-25T09:04:41.595Z,987.34
2022-07-25T09:05:40.589Z,987.32
2022-07-25T09:06:40.580Z,987.35
2022-07-25T09:07:40.602Z,987.27
2022-07-25T09:08:40.572Z,987.27
2022-07-25T09:09:40.566Z,987.27
2022-07-25T09:10:40.560Z,987.25
2022-07-25T09:11:40.544Z,987.28
2022-07-25T09:12:41.576Z,987.32
2022-07-25T09:13:40.545Z,987.24
2022-07-25T09:14:40.537Z,987.23
2022-07-25T09:15:40.566Z,987.26
2022-07-25T09:16:41.072Z,987.23
2022-07-25T09:17:40.551Z,987.27
2022-07-25T09:18:40.522Z,987.20
2022-07-25T09:19:40.519Z,987.25
2022-07-25T09:20:40.509Z,987.22
2022-07-25T09:21:40.509Z,987.27
2022-07-25T09:22:40.527Z,987.27
2022-07-25T09:23:40.502Z,987.29
2022-07-25T09:24:40.497Z,987.22
2022-07-25T09:25:40.486Z,987.17
2022-07-25T09:26:40.482Z,987.14
2022-07-25T09:27:40.514Z,987.06
2022-07-25T09:28:40.478Z,987.09
2022-07-25T09:29:40.473Z,987.14
2022-07-25T09:30:40.519Z,987.06
2022-07-25T09:31:40.525Z,987.07
2022-07-25T09:32:40.473Z,987.06
2022-07-25T09:33:40.449Z,987.05
2022-07-25T09:34:40.443Z,987.08
2022-07-25T09:35:40.436Z,987.04
2022-07-25T09:36:40.417Z,987.03
2022-07-25T09:37:41.451Z,987.04
2022-07-25T09:38:40.426Z,987.00
2022-07-25T09:39:45.392Z,986.95
2022-07-25T09:40:42.405Z,986.87
2022-07-25T09:41:40.398Z,986.93
2022-07-25T09:42:40.419Z,986.95
2022-07-25T09:43:40.389Z,986.89
2022-07-25T09:44:40.377Z,986.85
2022-07-25T09:45:40.377Z,986.92
2022-07-25T09:46:40.401Z,986.92
2022-07-25T09:47:40.391Z,986.88
2022-07-25T09:48:40.384Z,986.87
2022-07-25T09:49:40.350Z,986.83
2022-07-25T09:50:40.350Z,986.83
2022-07-25T09:51:40.343Z,986.80
2022-07-25T09:52:40.360Z,986.72
2022-07-25T09:53:40.330Z,986.78
2022-07-25T09:54:40.318Z,986.81
2022-07-25T09:55:40.315Z,986.68
2022-07-25T09:56:40.305Z,986.73
2022-07-25T09:57:40.321Z,986.70
2022-07-25T09:58:40.300Z,986.63
2022-07-25T09:59:40.290Z,986.58
2022-07-25T10:00:40.282Z,986.61
2022-07-25T10:01:40.312Z,986.49
2022-07-25T10:02:40.331Z,986.58
2022-07-25T10:03:40.262Z,986.52
2022-07-25T10:04:40.256Z,986.56
2022-07-25T10:05:40.252Z,986.56
2022-07-25T10:06:40.245Z,986.49
2022-07-25T10:07:40.259Z,986.52
2022-07-25T10:08:40.231Z,986.52
2022-07-25T10:09:40.233Z,986.37
2022-07-25T10:10:40.234Z,986.43
2022-07-25T10:11:40.215Z,986.39
2022-07-25T10:12:40.226Z,986.39
2022-07-25T10:13:40.197Z,986.40
2022-07-25T10:14:40.192Z,986.34
2022-07-25T10:15:40.186Z,986.35
2022-07-25T10:16:40.214Z,986.33
2022-07-25T10:17:40.194Z,986.24
2022-07-25T10:18:40.160Z,986.27
2022-07-25T10:19:40.178Z,986.26
2022-07-25T10:20:40.148Z,986.32
2022-07-25T10:21:40.144Z,986.32
2022-07-25T10:22:55.951Z,986.33
2022-07-25T10:23:42.134Z,986.35
2022-07-25T10:24:40.124Z,986.39
2022-07-25T10:25:40.114Z,986.41
2022-07-25T10:26:40.142Z,986.35
2022-07-25T10:27:40.126Z,986.28
2022-07-25T10:28:40.118Z,986.19
2022-07-25T10:29:40.087Z,986.26
2022-07-25T10:30:40.137Z,986.30
2022-07-25T10:31:40.082Z,986.30
2022-07-25T10:32:40.098Z,986.19
2022-07-25T10:33:40.067Z,986.20
2022-07-25T10:34:40.064Z,986.19
2022-07-25T10:35:40.090Z,986.24
2022-07-25T10:36:40.044Z,986.25
2022-07-25T10:37:40.075Z,986.25
2022-07-25T10:38:40.031Z,986.19
2022-07-25T10:39:40.031Z,986.10
2022-07-25T10:40:40.013Z,986.12
2022-07-25T10:41:40.023Z,986.07
2022-07-25T10:42:40.030Z,986.10
2022-07-25T10:43:40.012Z,986.06
2022-07-25T10:44:39.993Z,986.03
2022-07-25T10:45:40.013Z,986.06
2022-07-25T10:46:40.075Z,986.03
2022-07-25T10:47:40.004Z,986.00
2022-07-25T10:48:40.001Z,986.00
2022-07-25T10:49:50.184Z,986.06
2022-07-25T10:50:55.274Z,986.01
2022-07-25T10:51:42.302Z,985.99
2022-07-25T10:52:40.977Z,985.93
2022-07-25T10:53:39.924Z,985.85
2022-07-25T10:54:39.919Z,985.87
2022-07-25T10:55:39.911Z,985.84
2022-07-25T10:56:39.904Z,985.81
2022-07-25T10:57:54.943Z,985.79
2022-07-25T10:58:41.898Z,985.83
2022-07-25T10:59:39.884Z,985.77
2022-07-25T11:00:39.874Z,985.82
2022-07-25T11:01:40.003Z,985.77
2022-07-25T11:02:39.895Z,985.78
2022-07-25T11:03:39.887Z,985.90
2022-07-25T11:04:39.858Z,985.82
2022-07-25T11:05:39.853Z,985.86
2022-07-25T11:06:39.837Z,985.80
2022-07-25T11:07:39.860Z,985.81
2022-07-25T11:08:39.829Z,985.83
2022-07-25T11:09:39.814Z,985.83
2022-07-25T11:10:39.810Z,985.80
2022-07-25T11:11:39.805Z,985.86
2022-07-25T11:12:39.821Z,985.75
2022-07-25T11:13:39.815Z,985.88
2022-07-25T11:14:39.781Z,985.96
2022-07-25T11:15:39.780Z,985.91
2022-07-25T11:16:39.820Z,985.91
2022-07-25T11:17:39.761Z,985.84
2022-07-25T11:18:39.787Z,985.77
2022-07-25T11:19:39.749Z,985.75
2022-07-25T11:20:39.735Z,985.76
2022-07-25T11:21:39.731Z,985.70
2022-07-25T11:22:39.729Z,985.69
2022-07-25T11:23:39.743Z,985.70
2022-07-25T11:24:39.707Z,985.71
2022-07-25T11:25:39.715Z,985.73
2022-07-25T11:26:39.697Z,985.72
2022-07-25T11:27:39.718Z,985.75
2022-07-25T11:28:39.708Z,985.75
2022-07-25T11:29:39.674Z,985.79
2022-07-25T11:30:39.671Z,985.76
2022-07-25T11:31:39.720Z,985.80
2022-07-25T11:32:39.667Z,985.80
2022-07-25T11:33:39.691Z,985.64
2022-07-25T11:34:39.658Z,985.71
2022-07-25T11:35:40.298Z,985.76
2022-07-25T11:36:39.680Z,985.68
2022-07-25T11:37:39.628Z,985.71
2022-07-25T11:38:39.645Z,985.70
2022-07-25T11:39:39.613Z,985.78
2022-07-25T11:40:39.613Z,985.70
2022-07-25T11:41:39.616Z,985.65
2022-07-25T11:42:39.603Z,985.55
2022-07-25T11:43:39.610Z,985.58
2022-07-25T11:44:42.900Z,985.60
2022-07-25T11:45:40.592Z,985.51
2022-07-25T11:46:39.593Z,985.61
2022-07-25T11:47:39.560Z,985.52
2022-07-25T11:48:39.630Z,985.55
2022-07-25T11:49:39.548Z,985.55
2022-07-25T11:50:39.545Z,985.49
2022-07-25T11:51:39.552Z,985.41
2022-07-25T11:52:39.530Z,985.59
2022-07-25T11:53:39.545Z,985.55
2022-07-25T11:54:39.518Z,985.58
2022-07-25T11:55:39.519Z,985.60
2022-07-25T11:56:43.069Z,985.64
2022-07-25T11:57:40.497Z,985.68
2022-07-25T11:58:39.507Z,985.57
2022-07-25T11:59:39.481Z,985.60
2022-07-25T12:00:39.507Z,985.61
2022-07-25T12:01:39.476Z,985.51
2022-07-25T12:02:39.580Z,985.54
2022-07-25T12:03:39.539Z,985.53
2022-07-25T12:04:39.443Z,985.56
2022-07-25T12:05:40.439Z,985.54
2022-07-25T12:06:39.428Z,985.52
2022-07-25T12:07:39.423Z,985.54
2022-07-25T12:08:39.443Z,985.45
2022-07-25T12:09:39.446Z,985.48
2022-07-25T12:10:39.405Z,985.55
2022-07-25T12:11:39.398Z,985.51
2022-07-25T12:12:39.406Z,985.51
2022-07-25T12:13:39.382Z,985.53
2022-07-25T12:14:39.403Z,985.43
2022-07-25T12:15:39.367Z,985.50
2022-07-25T12:16:39.425Z,985.47
2022-07-25T12:17:39.356Z,985.47
2022-07-25T12:18:39.346Z,985.44
2022-07-25T12:19:39.335Z,985.45
2022-07-25T12:20:39.363Z,985.45
2022-07-25T12:21:39.324Z,985.44
2022-07-25T12:22:39.318Z,985.50
2022-07-25T12:23:39.312Z,985.42
2022-07-25T12:24:39.321Z,985.44
2022-07-25T12:25:39.323Z,985.48
2022-07-25T12:26:39.302Z,985.52
2022-07-25T12:27:39.279Z,985.49
2022-07-25T12:28:39.281Z,985.46
2022-07-25T12:29:39.275Z,985.38